JBU2097 KATL-KFLL
Flight info
| Callsign | JBU2097 |
|---|---|
| Flight time | 1h 20m |
| Altitude | 37000 |
| Route | SMLTZ3 WALET ZPLEN TEEKY4 |
| Aircraft | A320/M-SDE3FGHIRWY/LB1 |
Departure
| Time | 2026-05-05 17:31 |
|---|---|
| Airport | Hartsfield Jackson Atlanta International Airport (KATL) |
Arrival
| Time | 2026-05-05 18:51 |
|---|---|
| Airport | Fort Lauderdale Hollywood International Airport (KFLL) |
| Time | Latitude | Longitude | Altitude | Speed | Heading |
|---|---|---|---|---|---|
| 2026-05-05 16:56 | 33.64346 | -84.44196 | 1036 ft | 0 kts | 289° |
| 2026-05-05 17:05 | 33.64346 | -84.44195 | 1045 ft | 0 kts | 289° |
| 2026-05-05 17:13 | 33.64345 | -84.44195 | 1036 ft | 0 kts | 289° |
| 2026-05-05 17:16 | 33.64345 | -84.44194 | 1036 ft | 0 kts | 289° |
| 2026-05-05 17:18 | 33.64340 | -84.44175 | 1036 ft | 3 kts | 288° |
| 2026-05-05 17:19 | 33.64335 | -84.44147 | 1036 ft | 3 kts | 268° |
| 2026-05-05 17:19 | 33.64340 | -84.44123 | 1036 ft | 3 kts | 215° |
| 2026-05-05 17:19 | 33.64349 | -84.44118 | 1036 ft | 0 kts | 178° |
| 2026-05-05 17:22 | 33.64325 | -84.44118 | 1036 ft | 7 kts | 179° |
| 2026-05-05 17:22 | 33.64261 | -84.44117 | 1036 ft | 11 kts | 180° |
| 2026-05-05 17:22 | 33.64173 | -84.44117 | 1036 ft | 14 kts | 180° |
| 2026-05-05 17:23 | 33.64164 | -84.44117 | 1036 ft | 15 kts | 180° |
| 2026-05-05 17:23 | 33.64099 | -84.44117 | 1036 ft | 16 kts | 180° |
| 2026-05-05 17:23 | 33.63978 | -84.44118 | 1036 ft | 18 kts | 180° |
| 2026-05-05 17:24 | 33.63853 | -84.44117 | 1036 ft | 18 kts | 180° |
| 2026-05-05 17:24 | 33.63728 | -84.44117 | 1036 ft | 16 kts | 179° |
| 2026-05-05 17:24 | 33.63665 | -84.44024 | 1036 ft | 18 kts | 90° |
| 2026-05-05 17:24 | 33.63665 | -84.43862 | 1036 ft | 21 kts | 90° |
| 2026-05-05 17:25 | 33.63665 | -84.43671 | 1036 ft | 24 kts | 90° |
| 2026-05-05 17:25 | 33.63665 | -84.43531 | 1035 ft | 25 kts | 90° |
| 2026-05-05 17:25 | 33.63665 | -84.43275 | 1035 ft | 24 kts | 90° |
| 2026-05-05 17:25 | 33.63665 | -84.43100 | 1035 ft | 21 kts | 90° |
| 2026-05-05 17:26 | 33.63664 | -84.42911 | 1035 ft | 24 kts | 91° |
| 2026-05-05 17:26 | 33.63659 | -84.42705 | 1036 ft | 23 kts | 94° |
| 2026-05-05 17:26 | 33.63656 | -84.42515 | 1036 ft | 18 kts | 90° |
| 2026-05-05 17:26 | 33.63657 | -84.42352 | 1036 ft | 21 kts | 89° |
| 2026-05-05 17:27 | 33.63638 | -84.42167 | 1036 ft | 24 kts | 116° |
| 2026-05-05 17:27 | 33.63582 | -84.41997 | 1036 ft | 23 kts | 92° |
| 2026-05-05 17:27 | 33.63582 | -84.41790 | 1035 ft | 26 kts | 90° |
| 2026-05-05 17:27 | 33.63582 | -84.41575 | 1035 ft | 25 kts | 89° |
| 2026-05-05 17:28 | 33.63582 | -84.41393 | 1034 ft | 22 kts | 90° |
| 2026-05-05 17:28 | 33.63581 | -84.41200 | 1035 ft | 24 kts | 90° |
| 2026-05-05 17:28 | 33.63582 | -84.41018 | 1035 ft | 17 kts | 91° |
| 2026-05-05 17:28 | 33.63529 | -84.40915 | 1036 ft | 15 kts | 169° |
| 2026-05-05 17:29 | 33.63472 | -84.40965 | 1036 ft | 9 kts | 270° |
| 2026-05-05 17:29 | 33.63472 | -84.40973 | 1036 ft | 0 kts | 269° |
| 2026-05-05 17:30 | 33.63471 | -84.40978 | 1036 ft | 4 kts | 268° |
| 2026-05-05 17:30 | 33.63471 | -84.41126 | 1034 ft | 45 kts | 270° |
| 2026-05-05 17:30 | 33.63469 | -84.41812 | 1036 ft | 116 kts | 269° |
| 2026-05-05 17:30 | 33.63459 | -84.42999 | 1110 ft | 161 kts | 265° |
| 2026-05-05 17:31 | 33.63502 | -84.44363 | 1806 ft | 167 kts | 267° |
| 2026-05-05 17:31 | 33.63543 | -84.45783 | 2533 ft | 173 kts | 267° |
| 2026-05-05 17:31 | 33.63571 | -84.47270 | 3115 ft | 186 kts | 264° |
| 2026-05-05 17:31 | 33.63550 | -84.48915 | 3470 ft | 209 kts | 264° |
| 2026-05-05 17:32 | 33.63511 | -84.50779 | 3985 ft | 236 kts | 264° |
| 2026-05-05 17:32 | 33.63476 | -84.52852 | 4598 ft | 258 kts | 265° |
| 2026-05-05 17:32 | 33.63455 | -84.55053 | 5504 ft | 267 kts | 265° |
| 2026-05-05 17:32 | 33.63447 | -84.57285 | 6634 ft | 267 kts | 266° |
| 2026-05-05 17:33 | 33.63446 | -84.59520 | 7659 ft | 269 kts | 267° |
| 2026-05-05 17:33 | 33.63447 | -84.61780 | 8660 ft | 272 kts | 266° |
| 2026-05-05 17:33 | 33.63152 | -84.64011 | 9665 ft | 273 kts | 250° |
| 2026-05-05 17:33 | 33.62253 | -84.66025 | 10554 ft | 276 kts | 232° |
| 2026-05-05 17:34 | 33.60843 | -84.67568 | 11400 ft | 283 kts | 214° |
| 2026-05-05 17:34 | 33.59095 | -84.68680 | 12247 ft | 290 kts | 205° |
| 2026-05-05 17:34 | 33.57117 | -84.69301 | 13063 ft | 300 kts | 190° |
| 2026-05-05 17:34 | 33.54993 | -84.69262 | 13839 ft | 312 kts | 175° |
| 2026-05-05 17:35 | 33.52830 | -84.68854 | 14552 ft | 317 kts | 175° |
| 2026-05-05 17:35 | 33.50632 | -84.68437 | 15279 ft | 322 kts | 175° |
| 2026-05-05 17:35 | 33.48402 | -84.68016 | 15993 ft | 327 kts | 175° |
| 2026-05-05 17:35 | 33.46135 | -84.67587 | 16700 ft | 332 kts | 176° |
| 2026-05-05 17:36 | 33.43848 | -84.67023 | 17385 ft | 342 kts | 167° |
| 2026-05-05 17:36 | 33.41638 | -84.65854 | 18036 ft | 356 kts | 153° |
| 2026-05-05 17:36 | 33.39591 | -84.64004 | 18180 ft | 383 kts | 138° |
| 2026-05-05 17:36 | 33.37673 | -84.61705 | 18570 ft | 396 kts | 137° |
| 2026-05-05 17:37 | 33.35713 | -84.59360 | 19104 ft | 402 kts | 137° |
| 2026-05-05 17:37 | 33.34365 | -84.57753 | 19505 ft | 406 kts | 138° |
| 2026-05-05 17:37 | 33.31691 | -84.54585 | 20300 ft | 412 kts | 138° |
| 2026-05-05 17:37 | 33.29632 | -84.52161 | 20897 ft | 417 kts | 138° |
| 2026-05-05 17:38 | 33.27553 | -84.49719 | 21483 ft | 422 kts | 139° |
| 2026-05-05 17:38 | 33.25448 | -84.47247 | 22060 ft | 426 kts | 139° |
| 2026-05-05 17:38 | 33.23324 | -84.44757 | 22628 ft | 431 kts | 139° |
| 2026-05-05 17:38 | 33.21170 | -84.42234 | 23201 ft | 436 kts | 139° |
| 2026-05-05 17:39 | 33.18994 | -84.39685 | 23753 ft | 441 kts | 139° |
| 2026-05-05 17:39 | 33.16806 | -84.37117 | 24245 ft | 445 kts | 139° |
| 2026-05-05 17:39 | 33.14587 | -84.34509 | 24717 ft | 450 kts | 139° |
| 2026-05-05 17:39 | 33.12344 | -84.31870 | 25182 ft | 455 kts | 139° |
| 2026-05-05 17:40 | 33.10078 | -84.29212 | 25632 ft | 459 kts | 139° |
| 2026-05-05 17:40 | 33.07791 | -84.26534 | 26066 ft | 464 kts | 138° |
| 2026-05-05 17:40 | 33.05504 | -84.23862 | 26483 ft | 468 kts | 138° |
| 2026-05-05 17:40 | 33.03162 | -84.21133 | 26945 ft | 473 kts | 140° |
| 2026-05-05 17:41 | 33.00625 | -84.18646 | 27348 ft | 473 kts | 149° |
| 2026-05-05 17:41 | 32.97811 | -84.16641 | 27761 ft | 471 kts | 159° |
| 2026-05-05 17:41 | 32.94784 | -84.15155 | 28183 ft | 469 kts | 167° |
| 2026-05-05 17:41 | 32.91678 | -84.13889 | 28596 ft | 473 kts | 167° |
| 2026-05-05 17:42 | 32.88553 | -84.12612 | 28997 ft | 477 kts | 167° |
| 2026-05-05 17:42 | 32.85399 | -84.11318 | 29395 ft | 481 kts | 167° |
| 2026-05-05 17:42 | 32.82224 | -84.10012 | 29809 ft | 485 kts | 167° |
| 2026-05-05 17:42 | 32.79017 | -84.08693 | 30205 ft | 489 kts | 167° |
| 2026-05-05 17:43 | 32.75791 | -84.07365 | 30531 ft | 493 kts | 167° |
| 2026-05-05 17:43 | 32.72540 | -84.06027 | 30846 ft | 496 kts | 167° |
| 2026-05-05 17:43 | 32.69263 | -84.04680 | 31187 ft | 500 kts | 167° |
| 2026-05-05 17:43 | 32.65965 | -84.03327 | 31530 ft | 503 kts | 167° |
| 2026-05-05 17:44 | 32.62643 | -84.01966 | 31875 ft | 506 kts | 167° |
| 2026-05-05 17:44 | 32.59315 | -84.00602 | 32342 ft | 506 kts | 167° |
| 2026-05-05 17:44 | 32.55985 | -83.99237 | 32827 ft | 506 kts | 168° |
| 2026-05-05 17:44 | 32.52656 | -83.97874 | 33309 ft | 507 kts | 168° |
| 2026-05-05 17:45 | 32.49322 | -83.96511 | 33781 ft | 507 kts | 168° |
| 2026-05-05 17:45 | 32.46026 | -83.95168 | 34204 ft | 508 kts | 168° |
| 2026-05-05 17:45 | 32.42683 | -83.93808 | 34594 ft | 508 kts | 168° |
| 2026-05-05 17:45 | 32.39343 | -83.92450 | 34991 ft | 508 kts | 168° |
| 2026-05-05 17:46 | 32.35997 | -83.91092 | 35395 ft | 508 kts | 169° |
| 2026-05-05 17:46 | 32.32642 | -83.89791 | 35746 ft | 507 kts | 171° |
| 2026-05-05 17:46 | 32.29275 | -83.88564 | 36104 ft | 506 kts | 172° |
| 2026-05-05 17:46 | 32.25895 | -83.87385 | 36479 ft | 506 kts | 172° |
| 2026-05-05 17:47 | 32.22515 | -83.86226 | 36839 ft | 506 kts | 173° |
| 2026-05-05 17:47 | 32.19126 | -83.85061 | 37001 ft | 507 kts | 172° |
| 2026-05-05 17:47 | 32.15744 | -83.83876 | 37073 ft | 506 kts | 172° |
| 2026-05-05 17:48 | 32.09026 | -83.81467 | 37078 ft | 504 kts | 172° |
| 2026-05-05 17:48 | 32.02329 | -83.79057 | 37081 ft | 503 kts | 172° |
| 2026-05-05 17:49 | 31.95624 | -83.76658 | 37081 ft | 503 kts | 172° |
| 2026-05-05 17:49 | 31.88924 | -83.74274 | 37085 ft | 504 kts | 172° |
| 2026-05-05 17:50 | 31.82248 | -83.71902 | 37087 ft | 504 kts | 172° |
| 2026-05-05 17:50 | 31.75488 | -83.69514 | 37091 ft | 504 kts | 172° |
| 2026-05-05 17:51 | 31.68819 | -83.67157 | 37099 ft | 505 kts | 171° |
| 2026-05-05 17:51 | 31.62113 | -83.64649 | 37073 ft | 506 kts | 170° |
| 2026-05-05 17:52 | 31.55433 | -83.62024 | 37095 ft | 507 kts | 169° |
| 2026-05-05 17:52 | 31.48743 | -83.59413 | 37113 ft | 506 kts | 170° |
| 2026-05-05 17:53 | 31.42035 | -83.56854 | 37119 ft | 506 kts | 170° |
| 2026-05-05 17:53 | 31.35329 | -83.54312 | 37079 ft | 506 kts | 170° |
| 2026-05-05 17:54 | 31.28638 | -83.51752 | 36615 ft | 513 kts | 167° |
| 2026-05-05 17:54 | 31.26385 | -83.50886 | 36198 ft | 514 kts | 169° |
| 2026-05-05 17:54 | 31.23015 | -83.49606 | 36042 ft | 506 kts | 169° |
| 2026-05-05 17:55 | 31.19556 | -83.48293 | 36140 ft | 506 kts | 169° |
| 2026-05-05 17:56 | 31.17008 | -83.47326 | 36302 ft | 506 kts | 169° |
| 2026-05-05 17:57 | 31.13663 | -83.46053 | 36547 ft | 506 kts | 169° |
| 2026-05-05 17:57 | 31.10315 | -83.44782 | 36798 ft | 506 kts | 170° |
| 2026-05-05 17:57 | 31.06969 | -83.43513 | 36986 ft | 506 kts | 170° |
| 2026-05-05 17:58 | 31.00271 | -83.40972 | 37088 ft | 506 kts | 170° |
| 2026-05-05 17:58 | 30.93581 | -83.38438 | 37098 ft | 505 kts | 170° |
| 2026-05-05 17:59 | 30.90273 | -83.37192 | 37099 ft | 505 kts | 170° |
| 2026-05-05 17:59 | 30.84177 | -83.34890 | 37101 ft | 505 kts | 170° |
| 2026-05-05 18:00 | 30.77486 | -83.32367 | 37058 ft | 505 kts | 170° |
| 2026-05-05 18:00 | 30.70812 | -83.29775 | 37080 ft | 510 kts | 165° |
| 2026-05-05 18:01 | 30.64325 | -83.26330 | 37104 ft | 513 kts | 161° |
| 2026-05-05 18:01 | 30.57848 | -83.22827 | 37103 ft | 513 kts | 161° |
| 2026-05-05 18:02 | 30.51369 | -83.19330 | 37108 ft | 513 kts | 162° |
| 2026-05-05 18:02 | 30.44934 | -83.15874 | 37116 ft | 513 kts | 162° |
| 2026-05-05 18:03 | 30.38446 | -83.12411 | 37128 ft | 513 kts | 162° |
| 2026-05-05 18:03 | 30.31962 | -83.08945 | 37115 ft | 513 kts | 162° |
| 2026-05-05 18:04 | 30.25473 | -83.05480 | 37116 ft | 514 kts | 161° |
| 2026-05-05 18:04 | 30.18946 | -83.01989 | 37089 ft | 514 kts | 161° |
| 2026-05-05 18:05 | 30.12499 | -82.98544 | 37102 ft | 513 kts | 161° |
| 2026-05-05 18:05 | 30.06009 | -82.95095 | 37106 ft | 513 kts | 161° |
| 2026-05-05 18:06 | 29.99518 | -82.91655 | 37110 ft | 513 kts | 162° |
| 2026-05-05 18:06 | 29.93028 | -82.88218 | 37108 ft | 513 kts | 161° |
| 2026-05-05 18:07 | 29.86546 | -82.84776 | 37092 ft | 513 kts | 161° |
| 2026-05-05 18:07 | 29.80059 | -82.81336 | 37102 ft | 512 kts | 161° |
| 2026-05-05 18:08 | 29.73588 | -82.77911 | 37121 ft | 512 kts | 161° |
| 2026-05-05 18:08 | 29.67106 | -82.74497 | 37114 ft | 512 kts | 161° |
| 2026-05-05 18:09 | 29.60613 | -82.71084 | 37078 ft | 513 kts | 161° |
| 2026-05-05 18:09 | 29.54127 | -82.67674 | 37099 ft | 513 kts | 161° |
| 2026-05-05 18:10 | 29.47675 | -82.64274 | 37103 ft | 515 kts | 161° |
| 2026-05-05 18:10 | 29.41046 | -82.60803 | 37092 ft | 531 kts | 161° |
| 2026-05-05 18:11 | 29.34301 | -82.57268 | 37082 ft | 535 kts | 161° |
| 2026-05-05 18:11 | 29.27465 | -82.54025 | 37089 ft | 526 kts | 171° |
| 2026-05-05 18:12 | 29.20388 | -82.52730 | 37089 ft | 508 kts | 187° |
| 2026-05-05 18:12 | 29.13348 | -82.52728 | 37091 ft | 505 kts | 189° |
| 2026-05-05 18:13 | 29.06307 | -82.52726 | 37095 ft | 506 kts | 189° |
| 2026-05-05 18:13 | 28.99319 | -82.52706 | 37082 ft | 506 kts | 188° |
| 2026-05-05 18:14 | 28.92272 | -82.52699 | 37097 ft | 506 kts | 188° |
| 2026-05-05 18:14 | 28.85241 | -82.52705 | 37104 ft | 506 kts | 189° |
| 2026-05-05 18:15 | 28.78200 | -82.52706 | 37097 ft | 506 kts | 188° |
| 2026-05-05 18:15 | 28.71163 | -82.52698 | 37074 ft | 506 kts | 188° |
| 2026-05-05 18:16 | 28.64123 | -82.52696 | 37085 ft | 505 kts | 188° |
| 2026-05-05 18:16 | 28.57076 | -82.52695 | 37091 ft | 505 kts | 188° |
| 2026-05-05 18:17 | 28.50044 | -82.52695 | 37094 ft | 505 kts | 188° |
| 2026-05-05 18:17 | 28.43007 | -82.52688 | 37066 ft | 505 kts | 188° |
| 2026-05-05 18:17 | 28.39539 | -82.52678 | 36865 ft | 507 kts | 189° |
| 2026-05-05 18:18 | 28.35930 | -82.52646 | 36101 ft | 514 kts | 187° |
| 2026-05-05 18:18 | 28.32350 | -82.52642 | 36405 ft | 511 kts | 188° |
| 2026-05-05 18:18 | 28.28817 | -82.52645 | 36894 ft | 507 kts | 188° |
| 2026-05-05 18:18 | 28.25328 | -82.52656 | 37055 ft | 505 kts | 188° |
| 2026-05-05 18:19 | 28.21811 | -82.52670 | 37079 ft | 504 kts | 188° |
| 2026-05-05 18:19 | 28.14797 | -82.52679 | 37059 ft | 503 kts | 188° |
| 2026-05-05 18:20 | 28.07794 | -82.52674 | 37081 ft | 503 kts | 188° |
| 2026-05-05 18:20 | 28.00765 | -82.52455 | 37082 ft | 511 kts | 179° |
| 2026-05-05 18:21 | 27.93781 | -82.50486 | 37083 ft | 522 kts | 168° |
| 2026-05-05 18:21 | 27.86847 | -82.48014 | 37077 ft | 522 kts | 168° |
| 2026-05-05 18:22 | 27.79959 | -82.45568 | 37069 ft | 522 kts | 168° |
| 2026-05-05 18:22 | 27.73022 | -82.43119 | 37082 ft | 523 kts | 168° |
| 2026-05-05 18:23 | 27.66080 | -82.40667 | 37079 ft | 523 kts | 168° |
| 2026-05-05 18:23 | 27.59148 | -82.38211 | 37080 ft | 523 kts | 168° |
| 2026-05-05 18:24 | 27.52199 | -82.35763 | 37088 ft | 523 kts | 168° |
| 2026-05-05 18:24 | 27.45249 | -82.33320 | 36831 ft | 523 kts | 168° |
| 2026-05-05 18:24 | 27.41778 | -82.32096 | 36581 ft | 522 kts | 168° |
| 2026-05-05 18:25 | 27.38325 | -82.30803 | 36333 ft | 526 kts | 162° |
| 2026-05-05 18:25 | 27.36125 | -82.29642 | 36163 ft | 530 kts | 155° |
| 2026-05-05 18:25 | 27.31822 | -82.26913 | 35843 ft | 531 kts | 154° |
| 2026-05-05 18:25 | 27.28608 | -82.24867 | 35600 ft | 531 kts | 154° |
| 2026-05-05 18:26 | 27.25387 | -82.22821 | 35337 ft | 531 kts | 154° |
| 2026-05-05 18:26 | 27.22161 | -82.20774 | 35102 ft | 531 kts | 154° |
| 2026-05-05 18:26 | 27.18950 | -82.18722 | 34623 ft | 532 kts | 154° |
| 2026-05-05 18:27 | 27.18339 | -82.18329 | 34527 ft | 532 kts | 153° |
| 2026-05-05 18:27 | 27.16610 | -82.17249 | 34335 ft | 530 kts | 154° |
| 2026-05-05 18:27 | 27.13429 | -82.15262 | 34105 ft | 530 kts | 154° |
| 2026-05-05 18:27 | 27.10220 | -82.13243 | 33859 ft | 531 kts | 154° |
| 2026-05-05 18:28 | 27.03792 | -82.09168 | 33342 ft | 531 kts | 153° |
| 2026-05-05 18:28 | 27.00581 | -82.07128 | 32614 ft | 531 kts | 154° |
| 2026-05-05 18:28 | 26.97418 | -82.04933 | 31410 ft | 539 kts | 147° |
| 2026-05-05 18:29 | 26.94508 | -82.02271 | 30439 ft | 540 kts | 138° |
| 2026-05-05 18:29 | 26.91900 | -81.99270 | 29514 ft | 536 kts | 134° |
| 2026-05-05 18:29 | 26.89338 | -81.96239 | 28615 ft | 534 kts | 135° |
| 2026-05-05 18:29 | 26.86783 | -81.93227 | 27719 ft | 533 kts | 135° |
| 2026-05-05 18:30 | 26.84228 | -81.90217 | 26831 ft | 532 kts | 135° |
| 2026-05-05 18:30 | 26.81706 | -81.87247 | 26324 ft | 519 kts | 135° |
| 2026-05-05 18:30 | 26.79264 | -81.84368 | 26063 ft | 501 kts | 135° |
| 2026-05-05 18:30 | 26.76905 | -81.81585 | 25915 ft | 484 kts | 135° |
| 2026-05-05 18:31 | 26.74614 | -81.78899 | 25730 ft | 472 kts | 135° |
| 2026-05-05 18:31 | 26.72345 | -81.76260 | 25299 ft | 468 kts | 136° |
| 2026-05-05 18:31 | 26.70087 | -81.73643 | 24740 ft | 466 kts | 136° |
| 2026-05-05 18:31 | 26.67846 | -81.71048 | 24290 ft | 461 kts | 136° |
| 2026-05-05 18:32 | 26.65621 | -81.68471 | 23764 ft | 459 kts | 136° |
| 2026-05-05 18:32 | 26.63455 | -81.65940 | 23335 ft | 454 kts | 133° |
| 2026-05-05 18:32 | 26.61520 | -81.63177 | 23019 ft | 448 kts | 128° |
| 2026-05-05 18:32 | 26.59664 | -81.60391 | 22485 ft | 447 kts | 128° |
| 2026-05-05 18:33 | 26.57838 | -81.57674 | 21991 ft | 444 kts | 128° |
| 2026-05-05 18:33 | 26.55983 | -81.54928 | 21505 ft | 441 kts | 128° |
| 2026-05-05 18:33 | 26.54142 | -81.52212 | 21027 ft | 437 kts | 128° |
| 2026-05-05 18:33 | 26.52316 | -81.49517 | 20565 ft | 433 kts | 128° |
| 2026-05-05 18:34 | 26.50783 | -81.47250 | 20270 ft | 426 kts | 128° |
| 2026-05-05 18:34 | 26.49011 | -81.44623 | 19839 ft | 421 kts | 128° |
| 2026-05-05 18:34 | 26.47260 | -81.42023 | 19375 ft | 417 kts | 128° |
| 2026-05-05 18:34 | 26.45522 | -81.39443 | 18907 ft | 414 kts | 127° |
| 2026-05-05 18:35 | 26.43799 | -81.36889 | 18441 ft | 410 kts | 127° |
| 2026-05-05 18:35 | 26.42088 | -81.34359 | 17928 ft | 407 kts | 128° |
| 2026-05-05 18:35 | 26.40378 | -81.31864 | 17422 ft | 403 kts | 129° |
| 2026-05-05 18:35 | 26.38627 | -81.29442 | 16918 ft | 398 kts | 130° |
| 2026-05-05 18:36 | 26.36856 | -81.27090 | 16408 ft | 395 kts | 131° |
| 2026-05-05 18:36 | 26.35082 | -81.24774 | 15945 ft | 390 kts | 132° |
| 2026-05-05 18:36 | 26.33331 | -81.22487 | 15479 ft | 386 kts | 132° |
| 2026-05-05 18:36 | 26.31698 | -81.20341 | 15035 ft | 382 kts | 131° |
| 2026-05-05 18:37 | 26.29993 | -81.18083 | 14579 ft | 379 kts | 131° |
| 2026-05-05 18:37 | 26.28334 | -81.15874 | 14111 ft | 375 kts | 132° |
| 2026-05-05 18:37 | 26.26666 | -81.13659 | 13653 ft | 371 kts | 132° |
| 2026-05-05 18:37 | 26.25009 | -81.11467 | 13165 ft | 367 kts | 132° |
| 2026-05-05 18:38 | 26.23370 | -81.09307 | 12685 ft | 363 kts | 132° |
| 2026-05-05 18:38 | 26.21748 | -81.07176 | 12213 ft | 359 kts | 132° |
| 2026-05-05 18:38 | 26.20141 | -81.05070 | 11751 ft | 355 kts | 132° |
| 2026-05-05 18:38 | 26.18564 | -81.03002 | 11532 ft | 344 kts | 132° |
| 2026-05-05 18:39 | 26.17046 | -81.01010 | 11412 ft | 331 kts | 132° |
| 2026-05-05 18:39 | 26.15624 | -80.99051 | 11279 ft | 321 kts | 125° |
| 2026-05-05 18:39 | 26.14631 | -80.96875 | 11020 ft | 317 kts | 110° |
| 2026-05-05 18:39 | 26.14134 | -80.94552 | 10718 ft | 314 kts | 100° |
| 2026-05-05 18:40 | 26.13741 | -80.92135 | 10383 ft | 312 kts | 101° |
| 2026-05-05 18:40 | 26.13354 | -80.89767 | 10073 ft | 310 kts | 101° |
| 2026-05-05 18:40 | 26.12965 | -80.87414 | 9732 ft | 308 kts | 101° |
| 2026-05-05 18:40 | 26.12583 | -80.85123 | 9396 ft | 306 kts | 101° |
| 2026-05-05 18:41 | 26.12189 | -80.82780 | 9059 ft | 303 kts | 101° |
| 2026-05-05 18:41 | 26.11813 | -80.80518 | 8761 ft | 299 kts | 101° |
| 2026-05-05 18:41 | 26.11445 | -80.78248 | 8415 ft | 297 kts | 99° |
| 2026-05-05 18:41 | 26.11116 | -80.75987 | 8089 ft | 295 kts | 99° |
| 2026-05-05 18:42 | 26.10811 | -80.73735 | 7754 ft | 293 kts | 98° |
| 2026-05-05 18:42 | 26.10515 | -80.71502 | 7435 ft | 290 kts | 98° |
| 2026-05-05 18:42 | 26.10219 | -80.69289 | 7121 ft | 288 kts | 98° |
| 2026-05-05 18:42 | 26.09920 | -80.67078 | 6728 ft | 289 kts | 98° |
| 2026-05-05 18:43 | 26.09616 | -80.64866 | 6376 ft | 288 kts | 98° |
| 2026-05-05 18:43 | 26.09313 | -80.62676 | 6022 ft | 285 kts | 98° |
| 2026-05-05 18:43 | 26.09008 | -80.60500 | 5712 ft | 284 kts | 98° |
| 2026-05-05 18:43 | 26.08708 | -80.58346 | 5464 ft | 281 kts | 94° |
| 2026-05-05 18:44 | 26.08527 | -80.56899 | 5040 ft | 288 kts | 94° |
| 2026-05-05 18:44 | 26.08265 | -80.54752 | 4883 ft | 278 kts | 92° |
| 2026-05-05 18:44 | 26.08055 | -80.52604 | 4778 ft | 276 kts | 89° |
| 2026-05-05 18:44 | 26.07974 | -80.50754 | 4726 ft | 277 kts | 86° |
| 2026-05-05 18:45 | 26.08006 | -80.48617 | 4659 ft | 273 kts | 82° |
| 2026-05-05 18:45 | 26.08131 | -80.46373 | 4507 ft | 262 kts | 79° |
| 2026-05-05 18:45 | 26.08163 | -80.45942 | 4492 ft | 261 kts | 88° |
| 2026-05-05 18:45 | 26.08193 | -80.43939 | 4492 ft | 259 kts | 91° |
| 2026-05-05 18:46 | 26.08100 | -80.41949 | 4397 ft | 256 kts | 93° |
| 2026-05-05 18:46 | 26.07937 | -80.40027 | 4132 ft | 253 kts | 96° |
| 2026-05-05 18:46 | 26.07802 | -80.38045 | 3684 ft | 259 kts | 91° |
| 2026-05-05 18:46 | 26.07777 | -80.36069 | 3336 ft | 251 kts | 89° |
| 2026-05-05 18:47 | 26.07776 | -80.34176 | 3018 ft | 239 kts | 89° |
| 2026-05-05 18:47 | 26.07771 | -80.32376 | 2719 ft | 227 kts | 89° |
| 2026-05-05 18:47 | 26.07763 | -80.30668 | 2429 ft | 215 kts | 89° |
| 2026-05-05 18:47 | 26.07756 | -80.29057 | 2161 ft | 204 kts | 89° |
| 2026-05-05 18:48 | 26.07749 | -80.27520 | 1927 ft | 193 kts | 89° |
| 2026-05-05 18:48 | 26.07742 | -80.26049 | 1669 ft | 185 kts | 90° |
| 2026-05-05 18:48 | 26.07735 | -80.24690 | 1418 ft | 166 kts | 89° |
| 2026-05-05 18:48 | 26.07729 | -80.23501 | 1226 ft | 143 kts | 89° |
| 2026-05-05 18:49 | 26.07724 | -80.22447 | 1044 ft | 132 kts | 89° |
| 2026-05-05 18:49 | 26.07720 | -80.21438 | 877 ft | 128 kts | 89° |
| 2026-05-05 18:49 | 26.07708 | -80.20463 | 733 ft | 128 kts | 90° |
| 2026-05-05 18:49 | 26.07704 | -80.19478 | 602 ft | 127 kts | 90° |
| 2026-05-05 18:50 | 26.07702 | -80.18505 | 419 ft | 125 kts | 90° |
| 2026-05-05 18:50 | 26.07704 | -80.17550 | 270 ft | 124 kts | 92° |
| 2026-05-05 18:50 | 26.07696 | -80.16585 | 70 ft | 124 kts | 91° |
| 2026-05-05 18:50 | 26.07691 | -80.15679 | 18 ft | 102 kts | 90° |
| 2026-05-05 18:51 | 26.07685 | -80.15029 | 16 ft | 64 kts | 91° |
| 2026-05-05 18:51 | 26.07680 | -80.14643 | 19 ft | 41 kts | 90° |
| 2026-05-05 18:51 | 26.07630 | -80.14404 | 20 ft | 29 kts | 122° |
| 2026-05-05 18:51 | 26.07563 | -80.14345 | 17 ft | 10 kts | 210° |
| 2026-05-05 18:52 | 26.07557 | -80.14433 | 17 ft | 17 kts | 272° |
| 2026-05-05 18:52 | 26.07558 | -80.14587 | 17 ft | 22 kts | 269° |
| 2026-05-05 18:52 | 26.07539 | -80.14741 | 17 ft | 18 kts | 221° |
| 2026-05-05 18:52 | 26.07431 | -80.14829 | 16 ft | 21 kts | 226° |
| 2026-05-05 18:53 | 26.07316 | -80.14852 | 16 ft | 12 kts | 177° |
| 2026-05-05 18:53 | 26.07246 | -80.14784 | 16 ft | 15 kts | 119° |
| 2026-05-05 18:53 | 26.07209 | -80.14692 | 17 ft | 9 kts | 105° |
| 2026-05-05 18:53 | 26.07199 | -80.14631 | 16 ft | 4 kts | 98° |
| 2026-05-05 18:54 | 26.07186 | -80.14612 | 16 ft | 3 kts | 146° |
| 2026-05-05 18:54 | 26.07174 | -80.14603 | 16 ft | 0 kts | 143° |
| 2026-05-05 18:55 | 26.07175 | -80.14603 | 16 ft | 0 kts | 143° |